Jewell, Oregon
Current Conditions -  °F | °C
As of 5:55 PM on Wednesday 26 Nov 2014 (Local Time) from KAST Reporting Station
Scattered Clouds Scattered Clouds  
Wind Chill: 60°   Ceiling: Unl
Heat Index: 60°   Visibility: 10mi
Dew Point: 48°   Wind: 20mph
Humidity: 64%   Direction: 200°SSW
Pressure: 29.97"   Gusts: 29mph
Location:  45.8905°N, 123.667°W
Report Text: KAST 270155Z AUTO 20017G25KT 10SM SCT037 SCT100 16/09 A2997 RMK AO2 SLP147 T01560089
Loading
Personal Weather Stations






























Interactive Weather Map New forecast layout! Learn more

10-Day Weather Forecast

Advertisements
Track Severe Weather on mobile